createdAt,value
2018-07-26T00:16:39.212Z,10.30
2018-07-26T00:19:07.877Z,10.17
2018-07-26T00:21:36.486Z,10.23
2018-07-26T00:24:05.190Z,10.80
2018-07-26T00:26:33.848Z,10.60
2018-07-26T00:29:02.553Z,9.67
2018-07-26T00:31:31.277Z,10.20
2018-07-26T00:33:59.952Z,9.60
2018-07-26T00:36:28.721Z,10.30
2018-07-26T00:38:57.386Z,10.33
2018-07-26T00:41:25.634Z,10.43
2018-07-26T00:43:54.206Z,10.30
2018-07-26T00:46:22.909Z,10.20
2018-07-26T00:48:51.618Z,10.70
2018-07-26T00:51:20.175Z,11.10
2018-07-26T00:53:48.879Z,11.37
2018-07-26T00:56:17.166Z,10.80
2018-07-26T00:58:45.758Z,11.03
2018-07-26T01:01:14.459Z,11.80
2018-07-26T01:03:43.098Z,10.37
2018-07-26T01:06:11.790Z,10.90
2018-07-26T01:08:40.421Z,10.43
2018-07-26T01:11:09.133Z,10.90
2018-07-26T01:13:37.866Z,10.93
2018-07-26T01:16:06.514Z,11.00
2018-07-26T01:18:35.130Z,11.40
2018-07-26T01:21:03.814Z,11.77
2018-07-26T01:23:32.548Z,13.20
2018-07-26T01:26:01.227Z,13.50
2018-07-26T01:28:29.849Z,11.80
2018-07-26T01:30:58.485Z,13.10
2018-07-26T01:33:27.177Z,12.93
2018-07-26T01:35:55.806Z,12.50
2018-07-26T01:38:24.498Z,12.83
2018-07-26T01:40:53.171Z,12.00
2018-07-26T01:43:50.110Z,13.10
2018-07-26T01:46:20.226Z,12.50
2018-07-26T01:48:48.959Z,12.23
2018-07-26T01:51:17.629Z,12.07
2018-07-26T01:53:46.526Z,11.70
2018-07-26T01:56:15.237Z,11.17
2018-07-26T01:58:43.901Z,11.77
2018-07-26T02:01:13.341Z,11.87
2018-07-26T02:03:42.147Z,10.97
2018-07-26T02:06:11.009Z,11.07
2018-07-26T02:08:39.719Z,11.40
2018-07-26T02:11:08.413Z,10.50
2018-07-26T02:13:37.043Z,11.30
2018-07-26T02:16:05.671Z,11.20
2018-07-26T02:18:34.373Z,11.60
2018-07-26T02:21:02.987Z,10.43
2018-07-26T02:23:31.650Z,10.40
2018-07-26T02:26:00.249Z,10.10
2018-07-26T02:28:28.867Z,10.40
2018-07-26T02:30:57.523Z,10.53
2018-07-26T02:33:26.158Z,9.97
2018-07-26T02:35:54.801Z,10.60
2018-07-26T02:38:23.495Z,10.13
2018-07-26T02:40:52.211Z,10.10
2018-07-26T02:43:20.882Z,10.00
2018-07-26T02:45:49.628Z,10.27
2018-07-26T02:48:18.298Z,9.77
2018-07-26T02:50:46.926Z,9.30
2018-07-26T02:53:15.594Z,9.97
2018-07-26T02:55:44.296Z,9.80
2018-07-26T02:58:12.937Z,9.43
2018-07-26T03:00:41.541Z,9.80
2018-07-26T03:03:10.212Z,10.10
2018-07-26T03:05:38.962Z,10.00
2018-07-26T03:08:07.587Z,9.50
2018-07-26T03:10:36.174Z,9.87
2018-07-26T03:13:04.785Z,10.43
2018-07-26T03:15:33.435Z,10.70
2018-07-26T03:18:02.156Z,10.53
2018-07-26T03:20:30.846Z,10.63
2018-07-26T03:22:59.492Z,9.80
2018-07-26T03:25:28.138Z,10.67
2018-07-26T03:27:56.819Z,10.93
2018-07-26T03:30:25.503Z,10.70
2018-07-26T03:32:54.196Z,11.40
2018-07-26T03:35:22.838Z,11.70
2018-07-26T03:37:51.499Z,11.67
2018-07-26T03:40:20.179Z,12.90
2018-07-26T03:42:48.880Z,12.67
2018-07-26T03:45:17.546Z,12.90
2018-07-26T03:47:46.153Z,12.53
2018-07-26T03:50:14.856Z,12.07
2018-07-26T03:52:43.492Z,12.20
2018-07-26T03:55:12.129Z,11.77
2018-07-26T03:57:40.786Z,12.27
2018-07-26T04:00:09.486Z,11.17
2018-07-26T04:02:38.113Z,10.73
2018-07-26T04:05:06.789Z,11.57
2018-07-26T04:07:35.496Z,11.60
2018-07-26T04:10:04.223Z,11.40
2018-07-26T04:12:32.824Z,12.13
2018-07-26T04:15:01.411Z,11.80
2018-07-26T04:17:30.057Z,11.90
2018-07-26T04:19:58.719Z,10.73
2018-07-26T04:23:10.560Z,10.50
2018-07-26T04:25:39.315Z,10.60
2018-07-26T04:28:08.011Z,12.00
2018-07-26T04:30:36.634Z,10.90
2018-07-26T04:33:05.380Z,11.10
2018-07-26T04:35:34.011Z,10.70
2018-07-26T04:38:02.778Z,10.60
2018-07-26T04:40:31.422Z,10.63
2018-07-26T04:43:00.074Z,11.10
2018-07-26T04:45:28.723Z,10.67
2018-07-26T04:47:57.327Z,10.40
2018-07-26T04:50:26.014Z,9.60
2018-07-26T04:52:54.321Z,10.93
2018-07-26T04:55:22.977Z,9.87
2018-07-26T04:57:51.693Z,10.60
2018-07-26T05:00:20.533Z,11.00
2018-07-26T05:02:49.221Z,10.50
2018-07-26T05:05:17.978Z,10.60
2018-07-26T05:07:46.631Z,11.30
2018-07-26T05:10:15.306Z,11.37
2018-07-26T05:12:43.930Z,11.00
2018-07-26T05:15:12.642Z,11.27
2018-07-26T05:17:41.341Z,9.77
2018-07-26T05:20:10.004Z,10.47
2018-07-26T05:22:39.316Z,9.47
2018-07-26T05:25:08.091Z,10.13
2018-07-26T05:27:36.744Z,10.20
2018-07-26T05:30:05.828Z,10.07
2018-07-26T05:32:34.483Z,9.80
2018-07-26T05:35:02.775Z,10.10
2018-07-26T05:37:31.473Z,10.27
2018-07-26T05:40:00.162Z,9.50
2018-07-26T05:42:28.809Z,11.10
2018-07-26T05:44:57.423Z,9.93
2018-07-26T05:47:26.073Z,10.37
2018-07-26T05:49:54.841Z,9.40
2018-07-26T05:52:23.481Z,10.10
2018-07-26T05:54:52.206Z,10.40
2018-07-26T05:57:20.842Z,10.53
2018-07-26T05:59:49.479Z,9.60
2018-07-26T06:02:18.165Z,10.47
2018-07-26T06:04:46.816Z,10.40
2018-07-26T06:07:15.531Z,10.40
2018-07-26T06:09:44.232Z,9.80
2018-07-26T06:12:12.981Z,10.60
2018-07-26T06:14:41.628Z,10.37
2018-07-26T06:17:10.474Z,10.30
2018-07-26T06:19:39.203Z,10.63
2018-07-26T06:22:07.911Z,9.50
2018-07-26T06:24:36.658Z,10.33
2018-07-26T06:27:05.497Z,9.27
2018-07-26T06:29:34.221Z,9.37
2018-07-26T06:32:02.943Z,10.10
2018-07-26T06:34:31.574Z,9.40
2018-07-26T06:37:00.347Z,9.50
2018-07-26T06:39:29.055Z,10.30
2018-07-26T06:41:57.752Z,8.70
2018-07-26T06:44:26.396Z,8.60
2018-07-26T06:46:55.017Z,8.73
2018-07-26T06:49:23.753Z,9.10
2018-07-26T06:51:52.483Z,8.73
2018-07-26T06:54:21.149Z,8.47
2018-07-26T06:56:49.823Z,7.70
2018-07-26T06:59:18.515Z,7.70
2018-07-26T07:01:47.288Z,7.90
2018-07-26T07:04:15.935Z,7.60
2018-07-26T07:06:44.620Z,7.97
2018-07-26T07:09:13.288Z,7.97
2018-07-26T07:11:42.005Z,8.13
2018-07-26T07:14:10.339Z,8.13
2018-07-26T07:16:39.049Z,8.80
2018-07-26T07:19:08.046Z,8.87
2018-07-26T07:21:36.767Z,9.17
2018-07-26T07:24:05.885Z,8.30
2018-07-26T07:26:34.530Z,8.27
2018-07-26T07:29:03.292Z,8.07
2018-07-26T07:31:31.902Z,7.93
2018-07-26T07:34:00.747Z,8.40
2018-07-26T07:36:29.499Z,8.27
2018-07-26T07:38:58.166Z,7.10
2018-07-26T07:41:27.021Z,7.20
2018-07-26T07:43:55.668Z,6.27
2018-07-26T07:46:24.337Z,6.10
2018-07-26T07:48:53.084Z,5.83
2018-07-26T07:51:21.899Z,6.10
2018-07-26T07:53:50.528Z,5.07
2018-07-26T07:56:19.149Z,5.20
2018-07-26T07:58:47.734Z,5.23
2018-07-26T08:01:16.387Z,4.97
2018-07-26T08:03:45.007Z,5.33
2018-07-26T08:06:13.646Z,4.60
2018-07-26T08:08:42.374Z,4.70
2018-07-26T08:11:11.013Z,4.83
2018-07-26T08:13:39.662Z,4.80
2018-07-26T08:16:08.318Z,4.47
2018-07-26T08:18:37.648Z,4.60
2018-07-26T08:21:06.606Z,4.40
2018-07-26T08:23:35.254Z,4.13
2018-07-26T08:26:03.930Z,4.10
2018-07-26T08:28:32.547Z,4.43
2018-07-26T08:31:01.169Z,3.93
2018-07-26T08:33:29.841Z,4.57
2018-07-26T08:35:58.498Z,4.47
2018-07-26T08:38:27.073Z,3.53
2018-07-26T08:40:55.863Z,3.70
2018-07-26T08:43:24.448Z,4.00
2018-07-26T08:45:53.080Z,3.90
2018-07-26T08:48:21.383Z,3.63
2018-07-26T08:50:49.954Z,3.73
2018-07-26T08:53:18.559Z,3.30
2018-07-26T08:55:47.160Z,3.57
2018-07-26T08:58:16.119Z,3.60
2018-07-26T09:00:44.793Z,3.20
2018-07-26T09:03:13.439Z,3.30
2018-07-26T09:05:41.998Z,3.60
2018-07-26T09:08:10.549Z,3.20
2018-07-26T09:10:39.212Z,3.40
2018-07-26T09:13:07.786Z,3.60
2018-07-26T09:15:36.439Z,3.47
2018-07-26T09:18:05.074Z,3.27
2018-07-26T09:20:33.704Z,3.30
2018-07-26T09:23:02.278Z,3.20
2018-07-26T09:25:30.934Z,3.57
2018-07-26T09:27:59.572Z,3.33
2018-07-26T09:30:28.197Z,3.50
2018-07-26T09:32:56.802Z,2.63
2018-07-26T09:35:25.347Z,2.90
2018-07-26T09:37:53.922Z,2.90
2018-07-26T09:40:22.552Z,2.60
2018-07-26T09:42:51.110Z,2.33
2018-07-26T09:45:19.694Z,1.97
2018-07-26T09:47:48.246Z,2.00
2018-07-26T09:50:16.807Z,2.20
2018-07-26T09:52:45.479Z,2.40
2018-07-26T09:55:14.071Z,2.50
2018-07-26T09:57:42.752Z,2.40
2018-07-26T10:00:11.488Z,2.57
2018-07-26T10:02:40.061Z,2.40
2018-07-26T10:05:08.625Z,2.50
2018-07-26T10:07:37.265Z,2.50
2018-07-26T10:10:05.887Z,2.30
2018-07-26T10:12:34.516Z,2.50
2018-07-26T10:15:03.172Z,2.20
2018-07-26T10:17:31.703Z,2.60
2018-07-26T10:20:00.279Z,2.40
2018-07-26T10:22:28.545Z,2.07
2018-07-26T10:24:57.172Z,2.30
2018-07-26T10:27:25.786Z,2.53
2018-07-26T10:29:54.420Z,2.37
2018-07-26T10:32:23.067Z,2.50
2018-07-26T10:34:51.881Z,2.47
2018-07-26T10:37:20.561Z,2.30
2018-07-26T10:42:54.173Z,2.10
2018-07-26T10:45:22.766Z,2.40
2018-07-26T10:47:51.325Z,2.20
2018-07-26T10:50:19.918Z,2.03
2018-07-26T10:52:48.425Z,2.07
2018-07-26T10:55:16.989Z,2.50
2018-07-26T10:57:45.187Z,2.00
2018-07-26T11:00:13.773Z,2.00
2018-07-26T11:02:42.317Z,1.97
2018-07-26T11:05:17.231Z,2.13
2018-07-26T11:07:45.840Z,2.00
2018-07-26T11:10:14.537Z,2.20
2018-07-26T11:12:43.109Z,2.07
2018-07-26T11:15:23.130Z,2.20
2018-07-26T11:17:51.830Z,2.00
2018-07-26T11:20:20.515Z,2.00
2018-07-26T11:22:49.225Z,2.00
2018-07-26T11:25:17.775Z,2.10
2018-07-26T11:27:46.403Z,1.93
2018-07-26T11:30:14.987Z,1.87
2018-07-26T11:32:43.545Z,1.70
2018-07-26T11:35:12.447Z,1.87
2018-07-26T11:37:41.061Z,1.67
2018-07-26T11:40:09.658Z,1.97
2018-07-26T11:42:38.212Z,1.70
2018-07-26T11:45:07.761Z,1.83
2018-07-26T11:47:36.661Z,1.70
2018-07-26T11:50:06.052Z,1.97
2018-07-26T11:52:34.690Z,1.93
2018-07-26T11:55:03.367Z,1.90
2018-07-26T11:57:32.037Z,1.93
2018-07-26T12:00:00.805Z,1.90
2018-07-26T12:02:29.423Z,1.80
2018-07-26T12:04:57.891Z,1.90
2018-07-26T12:07:26.504Z,1.70
2018-07-26T12:09:55.060Z,1.90
2018-07-26T12:12:23.666Z,2.00
2018-07-26T12:14:52.330Z,1.70
2018-07-26T12:17:20.930Z,2.47
2018-07-26T12:19:49.506Z,1.87
2018-07-26T12:22:18.093Z,2.00
2018-07-26T12:24:46.696Z,1.90
2018-07-26T12:27:15.386Z,1.97
2018-07-26T12:29:43.965Z,1.70
2018-07-26T12:32:12.538Z,1.87
2018-07-26T12:34:41.130Z,1.77
2018-07-26T12:37:09.691Z,1.80
2018-07-26T12:39:38.270Z,1.70
2018-07-26T12:42:06.855Z,1.80
2018-07-26T12:44:35.431Z,1.70
2018-07-26T12:47:04.015Z,1.57
2018-07-26T12:49:32.651Z,1.67
2018-07-26T12:52:01.202Z,1.87
2018-07-26T12:54:29.789Z,1.83
2018-07-26T12:56:58.406Z,1.70
2018-07-26T12:59:26.994Z,1.70
2018-07-26T13:01:55.648Z,1.60
2018-07-26T13:04:24.359Z,1.80
2018-07-26T13:06:52.864Z,2.27
2018-07-26T13:09:21.396Z,1.70
2018-07-26T13:11:49.840Z,1.90
2018-07-26T13:14:18.276Z,1.83
2018-07-26T13:16:46.726Z,2.00
2018-07-26T13:19:15.161Z,1.60
2018-07-26T13:21:43.591Z,1.93
2018-07-26T13:24:12.062Z,1.80
2018-07-26T13:26:40.501Z,1.90
2018-07-26T13:29:08.984Z,2.00
2018-07-26T13:31:37.448Z,2.00
2018-07-26T13:34:05.935Z,2.07
2018-07-26T13:36:34.326Z,2.13
2018-07-26T13:39:02.819Z,2.00
2018-07-26T13:41:31.342Z,2.20
2018-07-26T13:43:59.965Z,2.60
2018-07-26T13:46:28.603Z,1.90
2018-07-26T13:49:01.145Z,2.20
2018-07-26T13:51:31.012Z,1.83
2018-07-26T13:53:59.717Z,2.27
2018-07-26T13:56:28.354Z,1.90
2018-07-26T13:58:57.017Z,2.00
2018-07-26T14:01:25.639Z,2.20
2018-07-26T14:03:55.311Z,1.93
2018-07-26T14:06:23.927Z,2.20
2018-07-26T14:11:45.265Z,1.90
2018-07-26T14:14:20.437Z,2.13
2018-07-26T14:17:05.437Z,2.20
2018-07-26T14:19:34.591Z,2.40
2018-07-26T14:22:03.276Z,2.30
2018-07-26T14:24:33.118Z,2.60
2018-07-26T14:27:02.969Z,2.50
2018-07-26T14:29:31.717Z,2.17
2018-07-26T14:32:00.469Z,2.23
2018-07-26T14:34:29.107Z,2.33
2018-07-26T14:36:57.714Z,2.23
2018-07-26T14:39:26.303Z,2.80
2018-07-26T14:42:05.323Z,2.67
2018-07-26T14:44:34.028Z,2.30
2018-07-26T14:47:02.622Z,2.53
2018-07-26T14:49:31.277Z,2.40
2018-07-26T14:51:59.922Z,2.67
2018-07-26T14:54:28.592Z,3.40
2018-07-26T14:56:57.098Z,2.70
2018-07-26T14:59:25.708Z,2.97
2018-07-26T15:01:57.809Z,2.73
2018-07-26T15:04:26.504Z,2.67
2018-07-26T15:10:03.755Z,2.70
2018-07-26T15:12:32.461Z,2.70
2018-07-26T15:15:01.071Z,2.77
2018-07-26T15:17:29.736Z,2.67
2018-07-26T15:19:58.322Z,2.57
2018-07-26T15:22:26.966Z,2.70
2018-07-26T15:24:55.570Z,3.30
2018-07-26T15:27:24.191Z,3.00
2018-07-26T15:29:52.838Z,2.63
2018-07-26T15:32:21.460Z,3.33
2018-07-26T15:34:50.095Z,3.20
2018-07-26T15:37:23.868Z,3.00
2018-07-26T15:39:52.473Z,2.97
2018-07-26T15:42:21.188Z,3.10
2018-07-26T15:44:49.772Z,3.20
2018-07-26T15:47:18.379Z,3.37
2018-07-26T15:52:41.153Z,3.00
2018-07-26T15:55:28.572Z,3.03
2018-07-26T15:58:02.743Z,2.83
2018-07-26T16:00:50.354Z,3.20
2018-07-26T16:03:18.934Z,3.37
2018-07-26T16:05:47.548Z,2.90
2018-07-26T16:08:16.159Z,2.93
2018-07-26T16:10:44.413Z,3.47
2018-07-26T16:13:12.678Z,2.90
2018-07-26T16:15:41.290Z,3.20
2018-07-26T16:18:09.924Z,3.20
2018-07-26T16:20:38.207Z,2.90
2018-07-26T16:23:06.805Z,3.23
2018-07-26T16:25:35.422Z,2.97
2018-07-26T16:28:04.173Z,3.33
2018-07-26T16:30:32.803Z,2.90
2018-07-26T16:33:01.433Z,3.23
2018-07-26T16:35:30.034Z,3.03
2018-07-26T16:37:58.582Z,2.90
2018-07-26T16:40:27.280Z,2.90
2018-07-26T16:42:55.949Z,3.10
2018-07-26T16:45:24.594Z,3.00
2018-07-26T16:47:53.127Z,3.00
2018-07-26T16:50:21.865Z,3.10
2018-07-26T16:52:50.518Z,3.03
2018-07-26T16:55:19.159Z,2.97
2018-07-26T16:57:47.730Z,3.10
2018-07-26T17:00:16.450Z,3.40
2018-07-26T17:02:45.098Z,3.27
2018-07-26T17:05:13.720Z,3.40
2018-07-26T17:07:42.493Z,3.83
2018-07-26T17:10:11.081Z,3.47
2018-07-26T17:12:39.751Z,3.30
2018-07-26T17:15:09.323Z,3.63
2018-07-26T17:17:37.602Z,3.33
2018-07-26T17:20:06.873Z,3.37
2018-07-26T17:22:35.546Z,3.20
2018-07-26T17:25:04.281Z,3.00
2018-07-26T17:27:32.562Z,3.27
2018-07-26T17:30:01.214Z,3.13
2018-07-26T17:32:29.974Z,3.47
2018-07-26T17:34:58.733Z,3.33
2018-07-26T17:37:27.542Z,3.63
2018-07-26T17:39:56.218Z,3.50
2018-07-26T17:42:24.842Z,3.33
2018-07-26T17:44:53.724Z,3.57
2018-07-26T17:47:22.332Z,3.20
2018-07-26T17:50:01.790Z,3.47
2018-07-26T17:52:30.473Z,3.40
2018-07-26T17:54:59.183Z,3.23
2018-07-26T17:57:27.799Z,3.77
2018-07-26T18:00:10.083Z,3.50
2018-07-26T18:02:39.599Z,3.40
2018-07-26T18:05:19.191Z,3.73
2018-07-26T18:07:47.854Z,3.57
2018-07-26T18:10:16.527Z,3.67
2018-07-26T18:15:53.576Z,3.30
2018-07-26T18:18:22.314Z,3.60
2018-07-26T18:20:50.937Z,3.70
2018-07-26T18:23:19.545Z,4.60
2018-07-26T18:25:56.620Z,4.00
2018-07-26T18:28:25.347Z,3.50
2018-07-26T18:30:54.201Z,4.00
2018-07-26T18:33:22.867Z,3.67
2018-07-26T18:36:04.153Z,3.60
2018-07-26T18:38:32.814Z,4.10
2018-07-26T18:41:01.644Z,3.80
2018-07-26T18:43:30.379Z,3.67
2018-07-26T18:45:59.159Z,3.60
2018-07-26T18:48:27.797Z,4.17
2018-07-26T18:50:56.503Z,3.80
2018-07-26T18:53:26.185Z,3.80
2018-07-26T18:55:54.944Z,4.47
2018-07-26T18:58:23.697Z,3.70
2018-07-26T19:00:52.555Z,4.20
2018-07-26T19:03:21.272Z,4.00
2018-07-26T19:05:50.008Z,4.10
2018-07-26T19:08:18.752Z,3.97
2018-07-26T19:10:47.376Z,4.07
2018-07-26T19:13:16.138Z,4.13
2018-07-26T19:15:44.720Z,4.20
2018-07-26T19:18:13.327Z,4.00
2018-07-26T19:23:39.830Z,4.23
2018-07-26T19:26:08.648Z,4.10
2018-07-26T19:28:37.296Z,3.70
2018-07-26T19:31:05.998Z,4.70
2018-07-26T19:33:34.618Z,4.20
2018-07-26T19:36:03.336Z,3.83
2018-07-26T19:38:32.049Z,4.43
2018-07-26T19:41:00.757Z,4.23
2018-07-26T19:43:29.485Z,4.30
2018-07-26T19:45:57.758Z,4.03
2018-07-26T19:48:26.365Z,4.57
2018-07-26T19:50:55.149Z,4.33
2018-07-26T19:53:23.881Z,4.00
2018-07-26T19:55:56.631Z,4.53
2018-07-26T19:58:25.413Z,4.37
2018-07-26T20:00:54.013Z,4.03
2018-07-26T20:03:22.612Z,4.33
2018-07-26T20:05:51.182Z,4.17
2018-07-26T20:08:19.781Z,5.03
2018-07-26T20:10:48.514Z,4.13
2018-07-26T20:13:17.211Z,4.27
2018-07-26T20:15:45.755Z,4.20
2018-07-26T20:18:14.335Z,4.40
2018-07-26T20:20:42.918Z,4.20
2018-07-26T20:23:11.618Z,4.60
2018-07-26T20:25:41.818Z,4.27
2018-07-26T20:28:11.236Z,4.53
2018-07-26T20:30:39.959Z,4.20
2018-07-26T20:33:08.645Z,4.60
2018-07-26T20:35:37.296Z,4.30
2018-07-26T20:38:06.148Z,4.80
2018-07-26T20:40:34.849Z,4.90
2018-07-26T20:43:03.574Z,4.70
2018-07-26T20:45:32.235Z,5.40
2018-07-26T20:48:00.844Z,4.90
2018-07-26T20:50:29.643Z,4.57
2018-07-26T20:52:58.308Z,5.00
2018-07-26T20:55:26.969Z,5.03
2018-07-26T20:57:56.175Z,5.50
2018-07-26T21:00:24.915Z,5.50
2018-07-26T21:02:53.634Z,5.50
2018-07-26T21:05:22.368Z,5.40
2018-07-26T21:07:51.038Z,5.60
2018-07-26T21:10:19.375Z,5.63
2018-07-26T21:12:48.098Z,4.90
2018-07-26T21:15:16.788Z,5.20
2018-07-26T21:17:45.473Z,4.90
2018-07-26T21:20:14.169Z,5.30
2018-07-26T21:22:42.902Z,4.90
2018-07-26T21:25:12.431Z,5.33
2018-07-26T21:27:41.076Z,5.13
2018-07-26T21:30:10.017Z,5.10
2018-07-26T21:32:41.966Z,5.80
2018-07-26T21:35:12.494Z,5.47
2018-07-26T21:37:41.098Z,5.50
2018-07-26T21:40:09.848Z,5.20
2018-07-26T21:42:38.529Z,5.87
2018-07-26T21:45:08.187Z,5.57
2018-07-26T21:47:36.926Z,5.70
2018-07-26T21:50:05.649Z,5.33
2018-07-26T21:52:35.604Z,6.27
2018-07-26T21:55:04.501Z,5.70
2018-07-26T21:57:33.214Z,5.57
2018-07-26T22:00:01.895Z,5.13
2018-07-26T22:02:30.617Z,5.90
2018-07-26T22:04:59.147Z,5.00
2018-07-26T22:07:27.744Z,5.20
2018-07-26T22:09:56.345Z,5.03
2018-07-26T22:12:25.003Z,5.73
2018-07-26T22:14:57.183Z,6.73
2018-07-26T22:17:25.842Z,5.50
2018-07-26T22:19:54.877Z,5.80
2018-07-26T22:22:23.529Z,5.83
2018-07-26T22:24:52.079Z,5.50
2018-07-26T22:27:20.781Z,5.60
2018-07-26T22:29:49.480Z,5.53
2018-07-26T22:32:18.113Z,5.80
2018-07-26T22:34:46.779Z,5.77
2018-07-26T22:37:15.426Z,5.43
2018-07-26T22:39:44.063Z,5.30
2018-07-26T22:42:12.662Z,5.70
2018-07-26T22:44:41.322Z,4.97
2018-07-26T22:47:09.966Z,5.80
2018-07-26T22:49:38.684Z,5.50
2018-07-26T22:52:07.332Z,5.67
2018-07-26T22:54:35.997Z,5.67
2018-07-26T22:57:04.709Z,5.73
2018-07-26T22:59:33.402Z,5.30
2018-07-26T23:02:02.128Z,5.40
2018-07-26T23:04:30.759Z,5.80
2018-07-26T23:06:59.426Z,5.80
2018-07-26T23:09:27.681Z,5.73
2018-07-26T23:11:56.390Z,5.63
2018-07-26T23:14:25.066Z,5.37
2018-07-26T23:16:53.756Z,5.50
2018-07-26T23:19:22.485Z,5.30
2018-07-26T23:21:51.161Z,5.43
2018-07-26T23:24:19.946Z,5.30
2018-07-26T23:26:48.618Z,5.47
2018-07-26T23:29:17.207Z,5.77
2018-07-26T23:31:45.833Z,5.17
2018-07-26T23:34:14.440Z,5.97
2018-07-26T23:36:43.053Z,5.30
2018-07-26T23:39:12.857Z,5.87
2018-07-26T23:41:41.518Z,5.70
2018-07-26T23:44:10.308Z,5.70
2018-07-26T23:46:38.983Z,5.73
2018-07-26T23:49:07.715Z,5.77
2018-07-26T23:51:36.391Z,5.60
2018-07-26T23:54:05.086Z,5.80
2018-07-26T23:56:33.758Z,5.50
2018-07-26T23:59:02.384Z,5.23
